sensor_id;sensor_type;location;lat;lon;timestamp;P1;durP1;ratioP1;P2;durP2;ratioP2
20036;SDS011;10179;42.640;23.312;2022-12-20T00:01:25;14.65;;;6.38;;
20036;SDS011;10179;42.640;23.312;2022-12-20T00:03:56;14.60;;;6.07;;
20036;SDS011;10179;42.640;23.312;2022-12-20T00:06:24;10.65;;;5.90;;
20036;SDS011;10179;42.640;23.312;2022-12-20T00:08:54;14.40;;;6.35;;
20036;SDS011;10179;42.640;23.312;2022-12-20T00:11:20;11.55;;;6.28;;
20036;SDS011;10179;42.640;23.312;2022-12-20T00:13:46;13.55;;;6.38;;
20036;SDS011;10179;42.640;23.312;2022-12-20T00:16:13;13.90;;;6.70;;
20036;SDS011;10179;42.640;23.312;2022-12-20T00:18:40;13.98;;;6.97;;
20036;SDS011;10179;42.640;23.312;2022-12-20T00:21:07;13.60;;;6.40;;
20036;SDS011;10179;42.640;23.312;2022-12-20T00:23:35;16.50;;;7.05;;
20036;SDS011;10179;42.640;23.312;2022-12-20T00:28:57;11.77;;;6.63;;
20036;SDS011;10179;42.640;23.312;2022-12-20T00:31:24;17.63;;;6.90;;
20036;SDS011;10179;42.640;23.312;2022-12-20T00:33:52;13.60;;;6.32;;
20036;SDS011;10179;42.640;23.312;2022-12-20T00:36:19;14.45;;;7.25;;
20036;SDS011;10179;42.640;23.312;2022-12-20T00:38:49;14.48;;;6.45;;
20036;SDS011;10179;42.640;23.312;2022-12-20T00:41:18;11.27;;;5.97;;
20036;SDS011;10179;42.640;23.312;2022-12-20T00:43:45;10.68;;;5.60;;
20036;SDS011;10179;42.640;23.312;2022-12-20T00:46:11;15.40;;;7.13;;
20036;SDS011;10179;42.640;23.312;2022-12-20T00:48:38;12.80;;;6.32;;
20036;SDS011;10179;42.640;23.312;2022-12-20T00:51:07;13.48;;;5.90;;
20036;SDS011;10179;42.640;23.312;2022-12-20T00:53:35;14.95;;;6.80;;
20036;SDS011;10179;42.640;23.312;2022-12-20T00:56:02;15.18;;;6.80;;
20036;SDS011;10179;42.640;23.312;2022-12-20T00:58:28;13.20;;;6.32;;
20036;SDS011;10179;42.640;23.312;2022-12-20T01:00:54;13.13;;;6.03;;
20036;SDS011;10179;42.640;23.312;2022-12-20T01:03:19;15.63;;;6.35;;
20036;SDS011;10179;42.640;23.312;2022-12-20T01:05:52;14.30;;;6.25;;
20036;SDS011;10179;42.640;23.312;2022-12-20T01:08:19;13.10;;;6.35;;
20036;SDS011;10179;42.640;23.312;2022-12-20T01:10:46;11.45;;;5.70;;
20036;SDS011;10179;42.640;23.312;2022-12-20T01:13:11;11.50;;;6.93;;
20036;SDS011;10179;42.640;23.312;2022-12-20T01:15:37;13.25;;;6.65;;
20036;SDS011;10179;42.640;23.312;2022-12-20T01:18:02;11.57;;;6.13;;
20036;SDS011;10179;42.640;23.312;2022-12-20T01:20:27;15.38;;;7.22;;
20036;SDS011;10179;42.640;23.312;2022-12-20T01:22:53;13.70;;;6.28;;
20036;SDS011;10179;42.640;23.312;2022-12-20T01:25:18;12.65;;;6.13;;
20036;SDS011;10179;42.640;23.312;2022-12-20T01:27:44;11.52;;;6.28;;
20036;SDS011;10179;42.640;23.312;2022-12-20T01:30:09;15.80;;;7.05;;
20036;SDS011;10179;42.640;23.312;2022-12-20T01:32:35;12.55;;;6.28;;
20036;SDS011;10179;42.640;23.312;2022-12-20T01:35:01;13.63;;;6.68;;
20036;SDS011;10179;42.640;23.312;2022-12-20T01:37:26;13.73;;;6.63;;
20036;SDS011;10179;42.640;23.312;2022-12-20T01:39:51;12.50;;;6.43;;
20036;SDS011;10179;42.640;23.312;2022-12-20T01:42:17;11.18;;;6.00;;
20036;SDS011;10179;42.640;23.312;2022-12-20T01:47:08;11.23;;;6.35;;
20036;SDS011;10179;42.640;23.312;2022-12-20T01:49:37;13.38;;;7.20;;
20036;SDS011;10179;42.640;23.312;2022-12-20T01:54:38;13.73;;;5.63;;
20036;SDS011;10179;42.640;23.312;2022-12-20T01:57:06;12.90;;;5.80;;
20036;SDS011;10179;42.640;23.312;2022-12-20T01:59:36;13.45;;;6.55;;
20036;SDS011;10179;42.640;23.312;2022-12-20T02:02:05;12.35;;;6.20;;
20036;SDS011;10179;42.640;23.312;2022-12-20T02:04:33;12.40;;;5.80;;
20036;SDS011;10179;42.640;23.312;2022-12-20T02:06:59;11.27;;;5.53;;
20036;SDS011;10179;42.640;23.312;2022-12-20T02:09:26;10.70;;;5.13;;
20036;SDS011;10179;42.640;23.312;2022-12-20T02:30:47;10.55;;;5.38;;
20036;SDS011;10179;42.640;23.312;2022-12-20T02:33:18;10.90;;;5.35;;
20036;SDS011;10179;42.640;23.312;2022-12-20T02:35:49;12.63;;;5.05;;
20036;SDS011;10179;42.640;23.312;2022-12-20T02:38:25;9.50;;;5.30;;
20036;SDS011;10179;42.640;23.312;2022-12-20T02:40:55;15.73;;;6.07;;
20036;SDS011;10179;42.640;23.312;2022-12-20T02:43:25;10.07;;;5.22;;
20036;SDS011;10179;42.640;23.312;2022-12-20T02:46:11;14.55;;;5.88;;
20036;SDS011;10179;42.640;23.312;2022-12-20T02:48:37;12.13;;;5.43;;
20036;SDS011;10179;42.640;23.312;2022-12-20T02:51:04;10.65;;;5.60;;
20036;SDS011;10179;42.640;23.312;2022-12-20T02:53:32;11.38;;;5.93;;
20036;SDS011;10179;42.640;23.312;2022-12-20T03:01:16;10.05;;;4.90;;
20036;SDS011;10179;42.640;23.312;2022-12-20T03:03:56;14.05;;;5.90;;
20036;SDS011;10179;42.640;23.312;2022-12-20T03:06:22;11.57;;;5.57;;
20036;SDS011;10179;42.640;23.312;2022-12-20T03:08:48;12.32;;;5.05;;
20036;SDS011;10179;42.640;23.312;2022-12-20T03:11:13;11.10;;;5.53;;
20036;SDS011;10179;42.640;23.312;2022-12-20T03:13:39;10.90;;;5.57;;
20036;SDS011;10179;42.640;23.312;2022-12-20T03:16:04;12.98;;;5.78;;
20036;SDS011;10179;42.640;23.312;2022-12-20T03:18:30;12.27;;;5.68;;
20036;SDS011;10179;42.640;23.312;2022-12-20T03:20:55;11.95;;;5.78;;
20036;SDS011;10179;42.640;23.312;2022-12-20T03:23:21;9.77;;;5.70;;
20036;SDS011;10179;42.640;23.312;2022-12-20T03:25:46;12.68;;;5.68;;
20036;SDS011;10179;42.640;23.312;2022-12-20T03:28:12;11.88;;;5.97;;
20036;SDS011;10179;42.640;23.312;2022-12-20T03:30:37;14.40;;;5.95;;
20036;SDS011;10179;42.640;23.312;2022-12-20T03:33:03;12.30;;;5.78;;
20036;SDS011;10179;42.640;23.312;2022-12-20T03:35:28;10.90;;;5.78;;
20036;SDS011;10179;42.640;23.312;2022-12-20T03:37:54;17.75;;;5.97;;
20036;SDS011;10179;42.640;23.312;2022-12-20T03:40:20;12.85;;;5.75;;
20036;SDS011;10179;42.640;23.312;2022-12-20T03:42:46;14.30;;;6.30;;
20036;SDS011;10179;42.640;23.312;2022-12-20T03:45:12;11.63;;;6.53;;
20036;SDS011;10179;42.640;23.312;2022-12-20T03:47:37;12.25;;;5.85;;
20036;SDS011;10179;42.640;23.312;2022-12-20T03:50:03;11.90;;;6.35;;
20036;SDS011;10179;42.640;23.312;2022-12-20T03:52:30;15.70;;;6.85;;
20036;SDS011;10179;42.640;23.312;2022-12-20T03:54:56;11.73;;;6.60;;
20036;SDS011;10179;42.640;23.312;2022-12-20T03:57:21;15.05;;;7.13;;
20036;SDS011;10179;42.640;23.312;2022-12-20T03:59:47;14.20;;;6.35;;
20036;SDS011;10179;42.640;23.312;2022-12-20T04:02:13;11.68;;;6.32;;
20036;SDS011;10179;42.640;23.312;2022-12-20T04:04:38;12.88;;;6.40;;
20036;SDS011;10179;42.640;23.312;2022-12-20T04:07:04;12.07;;;6.05;;
20036;SDS011;10179;42.640;23.312;2022-12-20T04:09:29;12.50;;;7.13;;
20036;SDS011;10179;42.640;23.312;2022-12-20T04:11:55;12.05;;;6.78;;
20036;SDS011;10179;42.640;23.312;2022-12-20T04:14:20;13.05;;;6.40;;
20036;SDS011;10179;42.640;23.312;2022-12-20T04:16:46;13.25;;;6.75;;
20036;SDS011;10179;42.640;23.312;2022-12-20T04:19:11;14.13;;;7.47;;
20036;SDS011;10179;42.640;23.312;2022-12-20T04:21:36;12.57;;;6.15;;
20036;SDS011;10179;42.640;23.312;2022-12-20T04:24:02;14.80;;;7.75;;
20036;SDS011;10179;42.640;23.312;2022-12-20T04:26:28;14.32;;;6.50;;
20036;SDS011;10179;42.640;23.312;2022-12-20T04:28:54;12.60;;;6.47;;
20036;SDS011;10179;42.640;23.312;2022-12-20T04:31:19;13.35;;;7.45;;
20036;SDS011;10179;42.640;23.312;2022-12-20T04:33:45;15.88;;;7.82;;
20036;SDS011;10179;42.640;23.312;2022-12-20T04:36:11;17.90;;;7.18;;
20036;SDS011;10179;42.640;23.312;2022-12-20T04:38:36;14.43;;;7.38;;
20036;SDS011;10179;42.640;23.312;2022-12-20T04:41:02;17.80;;;8.00;;
20036;SDS011;10179;42.640;23.312;2022-12-20T04:43:27;15.38;;;7.70;;
20036;SDS011;10179;42.640;23.312;2022-12-20T04:45:53;18.27;;;8.13;;
20036;SDS011;10179;42.640;23.312;2022-12-20T04:48:23;20.90;;;9.40;;
20036;SDS011;10179;42.640;23.312;2022-12-20T04:50:53;31.42;;;13.00;;
20036;SDS011;10179;42.640;23.312;2022-12-20T04:53:20;29.25;;;12.32;;
20036;SDS011;10179;42.640;23.312;2022-12-20T04:56:05;37.60;;;14.10;;
20036;SDS011;10179;42.640;23.312;2022-12-20T04:58:31;41.40;;;15.63;;
20036;SDS011;10179;42.640;23.312;2022-12-20T05:00:56;39.38;;;14.45;;
20036;SDS011;10179;42.640;23.312;2022-12-20T05:03:22;30.25;;;12.80;;
20036;SDS011;10179;42.640;23.312;2022-12-20T05:05:49;24.73;;;11.20;;
20036;SDS011;10179;42.640;23.312;2022-12-20T05:08:15;19.10;;;9.15;;
20036;SDS011;10179;42.640;23.312;2022-12-20T05:10:40;33.10;;;13.95;;
20036;SDS011;10179;42.640;23.312;2022-12-20T05:13:06;19.15;;;8.60;;
20036;SDS011;10179;42.640;23.312;2022-12-20T05:15:32;18.02;;;9.27;;
20036;SDS011;10179;42.640;23.312;2022-12-20T05:17:57;54.22;;;25.48;;
20036;SDS011;10179;42.640;23.312;2022-12-20T05:20:26;32.75;;;14.90;;
20036;SDS011;10179;42.640;23.312;2022-12-20T05:22:53;32.65;;;13.63;;
20036;SDS011;10179;42.640;23.312;2022-12-20T05:25:38;28.70;;;11.30;;
20036;SDS011;10179;42.640;23.312;2022-12-20T05:28:25;44.38;;;16.60;;
20036;SDS011;10179;42.640;23.312;2022-12-20T05:30:51;44.58;;;17.15;;
20036;SDS011;10179;42.640;23.312;2022-12-20T05:33:16;36.95;;;16.55;;
20036;SDS011;10179;42.640;23.312;2022-12-20T05:35:41;44.35;;;16.58;;
20036;SDS011;10179;42.640;23.312;2022-12-20T05:38:07;53.00;;;18.63;;
20036;SDS011;10179;42.640;23.312;2022-12-20T05:40:32;60.65;;;22.33;;
20036;SDS011;10179;42.640;23.312;2022-12-20T05:42:58;57.55;;;19.58;;
20036;SDS011;10179;42.640;23.312;2022-12-20T05:45:23;44.92;;;16.98;;
20036;SDS011;10179;42.640;23.312;2022-12-20T05:47:48;40.92;;;16.00;;
20036;SDS011;10179;42.640;23.312;2022-12-20T05:50:14;36.33;;;15.82;;
20036;SDS011;10179;42.640;23.312;2022-12-20T05:52:41;25.75;;;10.68;;
20036;SDS011;10179;42.640;23.312;2022-12-20T05:55:06;20.80;;;9.88;;
20036;SDS011;10179;42.640;23.312;2022-12-20T05:57:32;27.05;;;12.23;;
20036;SDS011;10179;42.640;23.312;2022-12-20T05:59:58;28.33;;;13.45;;
20036;SDS011;10179;42.640;23.312;2022-12-20T06:02:23;33.00;;;15.60;;
20036;SDS011;10179;42.640;23.312;2022-12-20T06:04:48;34.95;;;15.43;;
20036;SDS011;10179;42.640;23.312;2022-12-20T06:07:14;30.90;;;13.13;;
20036;SDS011;10179;42.640;23.312;2022-12-20T06:09:39;29.02;;;14.93;;
20036;SDS011;10179;42.640;23.312;2022-12-20T06:12:05;27.10;;;13.25;;
20036;SDS011;10179;42.640;23.312;2022-12-20T06:14:31;28.17;;;12.45;;
20036;SDS011;10179;42.640;23.312;2022-12-20T06:16:56;29.55;;;12.30;;
20036;SDS011;10179;42.640;23.312;2022-12-20T06:19:22;29.55;;;12.13;;
20036;SDS011;10179;42.640;23.312;2022-12-20T06:21:47;28.10;;;12.60;;
20036;SDS011;10179;42.640;23.312;2022-12-20T06:24:13;28.83;;;13.25;;
20036;SDS011;10179;42.640;23.312;2022-12-20T06:26:38;32.30;;;14.27;;
20036;SDS011;10179;42.640;23.312;2022-12-20T06:29:04;29.90;;;14.93;;
20036;SDS011;10179;42.640;23.312;2022-12-20T06:31:34;25.33;;;12.45;;
20036;SDS011;10179;42.640;23.312;2022-12-20T06:34:00;27.98;;;13.13;;
20036;SDS011;10179;42.640;23.312;2022-12-20T06:36:25;21.73;;;11.05;;
20036;SDS011;10179;42.640;23.312;2022-12-20T06:38:51;28.45;;;11.90;;
20036;SDS011;10179;42.640;23.312;2022-12-20T06:41:16;27.83;;;11.57;;
20036;SDS011;10179;42.640;23.312;2022-12-20T06:43:43;27.42;;;11.00;;
20036;SDS011;10179;42.640;23.312;2022-12-20T06:46:08;24.83;;;11.35;;
20036;SDS011;10179;42.640;23.312;2022-12-20T06:48:33;27.80;;;12.45;;
20036;SDS011;10179;42.640;23.312;2022-12-20T06:50:59;25.33;;;12.63;;
20036;SDS011;10179;42.640;23.312;2022-12-20T06:53:24;29.02;;;11.40;;
20036;SDS011;10179;42.640;23.312;2022-12-20T06:55:50;25.80;;;10.98;;
20036;SDS011;10179;42.640;23.312;2022-12-20T06:58:18;21.83;;;10.77;;
20036;SDS011;10179;42.640;23.312;2022-12-20T07:00:44;24.02;;;10.95;;
20036;SDS011;10179;42.640;23.312;2022-12-20T07:03:10;27.00;;;12.23;;
20036;SDS011;10179;42.640;23.312;2022-12-20T07:05:36;22.75;;;10.77;;
20036;SDS011;10179;42.640;23.312;2022-12-20T07:08:01;19.15;;;9.35;;
20036;SDS011;10179;42.640;23.312;2022-12-20T07:10:28;16.40;;;8.15;;
20036;SDS011;10179;42.640;23.312;2022-12-20T07:12:54;22.73;;;8.85;;
20036;SDS011;10179;42.640;23.312;2022-12-20T07:15:20;15.32;;;7.50;;
20036;SDS011;10179;42.640;23.312;2022-12-20T07:17:46;16.05;;;8.45;;
20036;SDS011;10179;42.640;23.312;2022-12-20T07:20:11;24.05;;;9.02;;
20036;SDS011;10179;42.640;23.312;2022-12-20T07:22:37;24.75;;;10.07;;
20036;SDS011;10179;42.640;23.312;2022-12-20T07:25:02;17.55;;;8.65;;
20036;SDS011;10179;42.640;23.312;2022-12-20T07:27:28;15.93;;;8.20;;
20036;SDS011;10179;42.640;23.312;2022-12-20T07:29:53;16.50;;;7.78;;
20036;SDS011;10179;42.640;23.312;2022-12-20T07:32:19;19.33;;;8.32;;
20036;SDS011;10179;42.640;23.312;2022-12-20T07:34:44;20.20;;;8.05;;
20036;SDS011;10179;42.640;23.312;2022-12-20T07:37:10;18.38;;;8.48;;
20036;SDS011;10179;42.640;23.312;2022-12-20T07:39:35;15.23;;;7.93;;
20036;SDS011;10179;42.640;23.312;2022-12-20T07:42:00;20.35;;;7.72;;
20036;SDS011;10179;42.640;23.312;2022-12-20T07:44:26;22.92;;;7.30;;
20036;SDS011;10179;42.640;23.312;2022-12-20T07:46:51;15.32;;;7.22;;
20036;SDS011;10179;42.640;23.312;2022-12-20T07:49:17;15.10;;;7.32;;
20036;SDS011;10179;42.640;23.312;2022-12-20T07:51:44;20.33;;;6.50;;
20036;SDS011;10179;42.640;23.312;2022-12-20T07:54:14;13.00;;;6.25;;
20036;SDS011;10179;42.640;23.312;2022-12-20T07:56:50;12.15;;;5.88;;
20036;SDS011;10179;42.640;23.312;2022-12-20T07:59:20;18.95;;;6.88;;
20036;SDS011;10179;42.640;23.312;2022-12-20T08:01:52;17.88;;;7.68;;
20036;SDS011;10179;42.640;23.312;2022-12-20T08:04:19;18.70;;;7.60;;
20036;SDS011;10179;42.640;23.312;2022-12-20T08:06:49;16.40;;;8.23;;
20036;SDS011;10179;42.640;23.312;2022-12-20T08:09:18;13.88;;;7.95;;
20036;SDS011;10179;42.640;23.312;2022-12-20T08:11:45;14.57;;;7.07;;
20036;SDS011;10179;42.640;23.312;2022-12-20T08:14:12;19.25;;;7.30;;
20036;SDS011;10179;42.640;23.312;2022-12-20T08:16:38;17.58;;;7.05;;
20036;SDS011;10179;42.640;23.312;2022-12-20T08:19:03;18.25;;;7.28;;
20036;SDS011;10179;42.640;23.312;2022-12-20T08:21:29;14.05;;;6.38;;
20036;SDS011;10179;42.640;23.312;2022-12-20T08:23:55;20.85;;;6.80;;
20036;SDS011;10179;42.640;23.312;2022-12-20T08:26:20;16.38;;;7.28;;
20036;SDS011;10179;42.640;23.312;2022-12-20T08:28:46;13.75;;;7.10;;
20036;SDS011;10179;42.640;23.312;2022-12-20T08:31:11;12.40;;;5.80;;
20036;SDS011;10179;42.640;23.312;2022-12-20T08:33:37;13.60;;;6.45;;
20036;SDS011;10179;42.640;23.312;2022-12-20T08:36:05;15.02;;;6.93;;
20036;SDS011;10179;42.640;23.312;2022-12-20T08:38:34;16.77;;;7.18;;
20036;SDS011;10179;42.640;23.312;2022-12-20T08:41:01;15.80;;;7.43;;
20036;SDS011;10179;42.640;23.312;2022-12-20T08:43:27;18.00;;;7.75;;
20036;SDS011;10179;42.640;23.312;2022-12-20T08:45:53;12.90;;;7.65;;
20036;SDS011;10179;42.640;23.312;2022-12-20T08:48:19;15.38;;;7.22;;
20036;SDS011;10179;42.640;23.312;2022-12-20T08:50:45;12.43;;;7.53;;
20036;SDS011;10179;42.640;23.312;2022-12-20T08:53:11;19.10;;;7.68;;
20036;SDS011;10179;42.640;23.312;2022-12-20T08:55:36;17.42;;;8.68;;
20036;SDS011;10179;42.640;23.312;2022-12-20T08:58:01;18.77;;;9.13;;
20036;SDS011;10179;42.640;23.312;2022-12-20T09:00:27;21.27;;;8.60;;
20036;SDS011;10179;42.640;23.312;2022-12-20T09:02:53;17.23;;;8.50;;
20036;SDS011;10179;42.640;23.312;2022-12-20T09:05:18;16.83;;;8.88;;
20036;SDS011;10179;42.640;23.312;2022-12-20T09:07:44;30.48;;;10.00;;
20036;SDS011;10179;42.640;23.312;2022-12-20T09:10:10;16.95;;;7.88;;
20036;SDS011;10179;42.640;23.312;2022-12-20T09:12:36;13.15;;;6.80;;
20036;SDS011;10179;42.640;23.312;2022-12-20T09:15:03;17.23;;;7.40;;
20036;SDS011;10179;42.640;23.312;2022-12-20T09:17:29;16.33;;;7.50;;
20036;SDS011;10179;42.640;23.312;2022-12-20T09:19:54;14.02;;;7.35;;
20036;SDS011;10179;42.640;23.312;2022-12-20T09:22:20;15.75;;;7.65;;
20036;SDS011;10179;42.640;23.312;2022-12-20T09:24:45;17.75;;;8.65;;
20036;SDS011;10179;42.640;23.312;2022-12-20T09:27:10;22.38;;;8.20;;
20036;SDS011;10179;42.640;23.312;2022-12-20T09:29:36;12.85;;;6.93;;
20036;SDS011;10179;42.640;23.312;2022-12-20T09:32:02;16.50;;;7.28;;
20036;SDS011;10179;42.640;23.312;2022-12-20T09:34:28;20.08;;;8.18;;
20036;SDS011;10179;42.640;23.312;2022-12-20T09:36:53;16.20;;;8.57;;
20036;SDS011;10179;42.640;23.312;2022-12-20T09:39:19;15.15;;;7.25;;
20036;SDS011;10179;42.640;23.312;2022-12-20T09:41:44;17.02;;;8.43;;
20036;SDS011;10179;42.640;23.312;2022-12-20T09:44:29;19.23;;;8.85;;
20036;SDS011;10179;42.640;23.312;2022-12-20T09:47:00;19.52;;;8.52;;
20036;SDS011;10179;42.640;23.312;2022-12-20T09:49:30;22.00;;;8.95;;
20036;SDS011;10179;42.640;23.312;2022-12-20T09:54:56;21.13;;;8.10;;
20036;SDS011;10179;42.640;23.312;2022-12-20T10:00:33;15.30;;;7.65;;
20036;SDS011;10179;42.640;23.312;2022-12-20T10:03:01;14.93;;;6.97;;
20036;SDS011;10179;42.640;23.312;2022-12-20T10:05:36;17.70;;;7.60;;
20036;SDS011;10179;42.640;23.312;2022-12-20T10:11:03;13.15;;;6.72;;
20036;SDS011;10179;42.640;23.312;2022-12-20T10:16:33;15.00;;;8.35;;
20036;SDS011;10179;42.640;23.312;2022-12-20T10:21:50;19.38;;;9.68;;
20036;SDS011;10179;42.640;23.312;2022-12-20T10:24:26;35.80;;;9.18;;
20036;SDS011;10179;42.640;23.312;2022-12-20T10:26:55;17.80;;;7.68;;
20036;SDS011;10179;42.640;23.312;2022-12-20T10:29:22;13.02;;;7.45;;
20036;SDS011;10179;42.640;23.312;2022-12-20T10:31:53;15.57;;;6.78;;
20036;SDS011;10179;42.640;23.312;2022-12-20T10:34:24;14.98;;;7.43;;
20036;SDS011;10179;42.640;23.312;2022-12-20T10:37:07;13.23;;;7.85;;
20036;SDS011;10179;42.640;23.312;2022-12-20T10:39:40;21.17;;;8.68;;
20036;SDS011;10179;42.640;23.312;2022-12-20T10:42:21;27.75;;;9.82;;
20036;SDS011;10179;42.640;23.312;2022-12-20T10:44:49;15.20;;;7.57;;
20036;SDS011;10179;42.640;23.312;2022-12-20T10:47:48;21.20;;;7.45;;
20036;SDS011;10179;42.640;23.312;2022-12-20T10:50:16;14.98;;;6.88;;
20036;SDS011;10179;42.640;23.312;2022-12-20T10:52:44;12.60;;;6.05;;
20036;SDS011;10179;42.640;23.312;2022-12-20T10:58:12;10.20;;;5.55;;
20036;SDS011;10179;42.640;23.312;2022-12-20T11:00:40;15.68;;;6.80;;
20036;SDS011;10179;42.640;23.312;2022-12-20T11:08:20;13.93;;;7.03;;
20036;SDS011;10179;42.640;23.312;2022-12-20T11:10:46;15.95;;;7.28;;
20036;SDS011;10179;42.640;23.312;2022-12-20T11:13:18;21.23;;;7.57;;
20036;SDS011;10179;42.640;23.312;2022-12-20T11:15:47;13.73;;;7.20;;
20036;SDS011;10179;42.640;23.312;2022-12-20T11:23:52;15.27;;;5.88;;
20036;SDS011;10179;42.640;23.312;2022-12-20T11:29:18;11.63;;;5.22;;
20036;SDS011;10179;42.640;23.312;2022-12-20T11:37:26;18.17;;;6.45;;
20036;SDS011;10179;42.640;23.312;2022-12-20T11:45:22;10.02;;;5.53;;
20036;SDS011;10179;42.640;23.312;2022-12-20T11:53:26;13.95;;;6.30;;
20036;SDS011;10179;42.640;23.312;2022-12-20T11:55:57;11.00;;;5.68;;
20036;SDS011;10179;42.640;23.312;2022-12-20T12:01:06;12.18;;;6.15;;
20036;SDS011;10179;42.640;23.312;2022-12-20T12:03:38;25.10;;;7.05;;
20036;SDS011;10179;42.640;23.312;2022-12-20T12:06:14;11.98;;;6.05;;
20036;SDS011;10179;42.640;23.312;2022-12-20T12:08:54;15.48;;;5.90;;
20036;SDS011;10179;42.640;23.312;2022-12-20T12:11:33;11.40;;;5.47;;
20036;SDS011;10179;42.640;23.312;2022-12-20T12:14:03;17.03;;;6.67;;
20036;SDS011;10179;42.640;23.312;2022-12-20T12:16:36;19.00;;;8.40;;
20036;SDS011;10179;42.640;23.312;2022-12-20T12:19:10;18.65;;;8.20;;
20036;SDS011;10179;42.640;23.312;2022-12-20T12:21:38;16.75;;;7.85;;
20036;SDS011;10179;42.640;23.312;2022-12-20T12:24:22;25.33;;;7.43;;
20036;SDS011;10179;42.640;23.312;2022-12-20T12:26:54;17.52;;;7.25;;
20036;SDS011;10179;42.640;23.312;2022-12-20T12:29:22;14.85;;;7.57;;
20036;SDS011;10179;42.640;23.312;2022-12-20T12:40:17;22.30;;;9.88;;
20036;SDS011;10179;42.640;23.312;2022-12-20T12:48:21;24.38;;;6.95;;
20036;SDS011;10179;42.640;23.312;2022-12-20T12:50:52;14.18;;;6.60;;
20036;SDS011;10179;42.640;23.312;2022-12-20T12:53:26;14.75;;;6.70;;
20036;SDS011;10179;42.640;23.312;2022-12-20T13:04:51;18.58;;;7.10;;
20036;SDS011;10179;42.640;23.312;2022-12-20T13:10:00;19.92;;;9.77;;
20036;SDS011;10179;42.640;23.312;2022-12-20T13:20:41;28.13;;;12.20;;
20036;SDS011;10179;42.640;23.312;2022-12-20T13:25:37;29.23;;;11.15;;
20036;SDS011;10179;42.640;23.312;2022-12-20T13:38:38;32.53;;;14.00;;
20036;SDS011;10179;42.640;23.312;2022-12-20T13:43:47;53.08;;;18.10;;
20036;SDS011;10179;42.640;23.312;2022-12-20T13:46:59;74.22;;;20.38;;
20036;SDS011;10179;42.640;23.312;2022-12-20T13:49:16;79.40;;;24.52;;
20036;SDS011;10179;42.640;23.312;2022-12-20T13:51:48;74.88;;;22.83;;
20036;SDS011;10179;42.640;23.312;2022-12-20T13:54:17;63.85;;;23.02;;
20036;SDS011;10179;42.640;23.312;2022-12-20T13:56:48;80.50;;;26.30;;
20036;SDS011;10179;42.640;23.312;2022-12-20T14:01:50;74.75;;;25.40;;
20036;SDS011;10179;42.640;23.312;2022-12-20T14:04:19;75.78;;;24.30;;
20036;SDS011;10179;42.640;23.312;2022-12-20T14:06:52;81.75;;;25.63;;
20036;SDS011;10179;42.640;23.312;2022-12-20T14:12:19;83.22;;;25.80;;
20036;SDS011;10179;42.640;23.312;2022-12-20T14:14:45;51.97;;;21.30;;
20036;SDS011;10179;42.640;23.312;2022-12-20T14:17:16;35.45;;;14.88;;
20036;SDS011;10179;42.640;23.312;2022-12-20T14:22:31;33.45;;;14.00;;
20036;SDS011;10179;42.640;23.312;2022-12-20T14:24:58;28.50;;;12.52;;
20036;SDS011;10179;42.640;23.312;2022-12-20T14:27:24;28.83;;;13.60;;
20036;SDS011;10179;42.640;23.312;2022-12-20T14:29:57;79.90;;;32.83;;
20036;SDS011;10179;42.640;23.312;2022-12-20T14:32:24;59.13;;;24.48;;
20036;SDS011;10179;42.640;23.312;2022-12-20T14:34:49;76.13;;;33.10;;
20036;SDS011;10179;42.640;23.312;2022-12-20T14:40:21;58.15;;;25.33;;
20036;SDS011;10179;42.640;23.312;2022-12-20T14:42:43;77.47;;;30.83;;
20036;SDS011;10179;42.640;23.312;2022-12-20T14:47:35;51.50;;;24.27;;
20036;SDS011;10179;42.640;23.312;2022-12-20T14:50:06;53.80;;;25.13;;
20036;SDS011;10179;42.640;23.312;2022-12-20T14:52:42;42.20;;;19.05;;
20036;SDS011;10179;42.640;23.312;2022-12-20T14:57:41;46.45;;;18.13;;
20036;SDS011;10179;42.640;23.312;2022-12-20T15:08:13;82.63;;;36.28;;
20036;SDS011;10179;42.640;23.312;2022-12-20T15:13:19;82.82;;;34.20;;
20036;SDS011;10179;42.640;23.312;2022-12-20T15:15:49;79.40;;;31.88;;
20036;SDS011;10179;42.640;23.312;2022-12-20T15:18:15;122.13;;;46.45;;
20036;SDS011;10179;42.640;23.312;2022-12-20T15:20:43;96.90;;;40.35;;
20036;SDS011;10179;42.640;23.312;2022-12-20T15:23:17;106.40;;;39.95;;
20036;SDS011;10179;42.640;23.312;2022-12-20T15:25:44;83.47;;;35.00;;
20036;SDS011;10179;42.640;23.312;2022-12-20T15:28:14;87.47;;;32.70;;
20036;SDS011;10179;42.640;23.312;2022-12-20T15:30:43;78.07;;;30.83;;
20036;SDS011;10179;42.640;23.312;2022-12-20T15:33:13;96.88;;;33.50;;
20036;SDS011;10179;42.640;23.312;2022-12-20T15:35:40;125.25;;;42.03;;
20036;SDS011;10179;42.640;23.312;2022-12-20T15:38:10;98.78;;;35.67;;
20036;SDS011;10179;42.640;23.312;2022-12-20T15:40:38;79.63;;;30.83;;
20036;SDS011;10179;42.640;23.312;2022-12-20T15:43:04;74.72;;;25.35;;
20036;SDS011;10179;42.640;23.312;2022-12-20T15:45:30;62.13;;;23.77;;
20036;SDS011;10179;42.640;23.312;2022-12-20T15:47:56;59.17;;;20.90;;
20036;SDS011;10179;42.640;23.312;2022-12-20T15:50:21;50.50;;;20.73;;
20036;SDS011;10179;42.640;23.312;2022-12-20T15:52:47;53.50;;;21.88;;
20036;SDS011;10179;42.640;23.312;2022-12-20T15:55:12;56.95;;;21.17;;
20036;SDS011;10179;42.640;23.312;2022-12-20T15:57:38;43.75;;;19.92;;
20036;SDS011;10179;42.640;23.312;2022-12-20T16:00:03;44.70;;;18.40;;
20036;SDS011;10179;42.640;23.312;2022-12-20T16:02:30;36.95;;;16.98;;
20036;SDS011;10179;42.640;23.312;2022-12-20T16:04:57;43.33;;;17.17;;
20036;SDS011;10179;42.640;23.312;2022-12-20T16:07:22;46.00;;;22.08;;
20036;SDS011;10179;42.640;23.312;2022-12-20T16:09:48;78.15;;;35.60;;
20036;SDS011;10179;42.640;23.312;2022-12-20T16:12:18;72.88;;;31.70;;
20036;SDS011;10179;42.640;23.312;2022-12-20T16:14:48;67.80;;;27.98;;
20036;SDS011;10179;42.640;23.312;2022-12-20T16:17:13;56.83;;;26.48;;
20036;SDS011;10179;42.640;23.312;2022-12-20T16:19:40;63.30;;;29.80;;
20036;SDS011;10179;42.640;23.312;2022-12-20T16:22:09;53.53;;;24.33;;
20036;SDS011;10179;42.640;23.312;2022-12-20T16:24:40;82.68;;;33.65;;
20036;SDS011;10179;42.640;23.312;2022-12-20T16:27:06;66.15;;;27.95;;
20036;SDS011;10179;42.640;23.312;2022-12-20T16:29:31;53.78;;;25.38;;
20036;SDS011;10179;42.640;23.312;2022-12-20T16:31:57;47.65;;;23.05;;
20036;SDS011;10179;42.640;23.312;2022-12-20T16:34:22;51.10;;;21.77;;
20036;SDS011;10179;42.640;23.312;2022-12-20T16:36:48;38.00;;;17.20;;
20036;SDS011;10179;42.640;23.312;2022-12-20T16:39:14;38.58;;;18.73;;
20036;SDS011;10179;42.640;23.312;2022-12-20T16:41:40;46.75;;;20.23;;
20036;SDS011;10179;42.640;23.312;2022-12-20T16:44:10;52.42;;;23.45;;
20036;SDS011;10179;42.640;23.312;2022-12-20T16:46:40;47.60;;;23.10;;
20036;SDS011;10179;42.640;23.312;2022-12-20T16:49:07;73.78;;;35.78;;
20036;SDS011;10179;42.640;23.312;2022-12-20T16:51:38;71.57;;;33.75;;
20036;SDS011;10179;42.640;23.312;2022-12-20T16:54:10;58.70;;;27.92;;
20036;SDS011;10179;42.640;23.312;2022-12-20T16:56:41;70.43;;;31.63;;
20036;SDS011;10179;42.640;23.312;2022-12-20T16:59:08;64.68;;;27.33;;